Time;durP1;ratioP1;P1;durP2;ratioP2;P2;SDS_P1;SDS_P2;PMS_P1;PMS_P2;Temp;Humidity;BMP_temperature;BMP_pressure;BME280_temperature;BME280_humidity;BME280_pressure;Samples;Min_cycle;Max_cycle;Signal;HPM_P1;HPM_P2
2020/12/26 00:02:13;;;;;;;9.17;4.97;;;;;;;4.46;58.51;102060.75;6290225;28;20231;-78
2020/12/26 00:05:35;;;;;;;9.67;6.57;;;;;;;4.22;59.71;102062.44;6289377;28;20243;-77
2020/12/26 00:08:56;;;;;;;8.10;5.80;;;;;;;4.30;60.12;102072.22;6274580;28;20228;-77
2020/12/26 00:12:17;;;;;;;9.40;6.60;;;;;;;4.18;60.88;102073.44;6278311;28;20227;-77
2020/12/26 00:15:37;;;;;;;6.73;6.10;;;;;;;4.20;60.57;102062.38;6292231;28;20602;-77
2020/12/26 00:18:58;;;;;;;7.03;6.43;;;;;;;4.33;60.70;102074.03;6267234;28;20951;-77
2020/12/26 00:22:18;;;;;;;8.43;5.90;;;;;;;4.71;58.42;102064.19;6291176;28;20227;-78
2020/12/26 00:25:41;;;;;;;7.37;6.00;;;;;;;4.92;57.78;102056.28;6275370;28;20238;-77
2020/12/26 00:29:01;;;;;;;7.87;6.63;;;;;;;4.80;58.90;102051.59;6293076;28;20235;-77
2020/12/26 00:32:22;;;;;;;10.03;8.20;;;;;;;4.37;60.71;102054.38;6279852;28;20499;-77
2020/12/26 00:35:43;;;;;;;10.23;7.93;;;;;;;4.42;60.43;102053.72;6281130;28;20231;-77
2020/12/26 00:39:04;;;;;;;10.97;7.67;;;;;;;4.46;60.41;102049.53;6288687;28;20232;-78
2020/12/26 00:42:25;;;;;;;8.47;7.47;;;;;;;4.21;60.78;102050.38;6269851;28;20528;-78
2020/12/26 00:45:45;;;;;;;9.07;8.17;;;;;;;4.32;61.16;102043.88;6262561;28;20223;-78
2020/12/26 00:49:06;;;;;;;10.13;6.57;;;;;;;4.75;59.09;102048.00;6269614;28;20311;-77
2020/12/26 00:52:28;;;;;;;7.33;6.57;;;;;;;5.06;57.53;102049.00;6280386;28;20262;-77
2020/12/26 00:55:49;;;;;;;8.03;6.10;;;;;;;5.21;56.99;102044.34;6269062;28;20845;-78
2020/12/26 00:59:11;;;;;;;8.50;7.80;;;;;;;5.04;58.18;102035.16;6259408;28;20224;-77
2020/12/26 01:02:31;;;;;;;9.07;6.97;;;;;;;4.92;58.52;102036.53;6275548;28;20231;-77
2020/12/26 01:05:53;;;;;;;10.17;8.47;;;;;;;5.12;57.41;102031.16;6260087;28;20240;-77
2020/12/26 01:09:13;;;;;;;10.57;7.53;;;;;;;5.12;57.33;102033.75;6277099;28;20236;-76
2020/12/26 01:12:34;;;;;;;8.67;7.47;;;;;;;4.87;58.82;102027.75;6269065;28;20242;-78
2020/12/26 01:15:56;;;;;;;7.70;6.90;;;;;;;4.98;57.67;102042.72;6258637;28;20232;-76
2020/12/26 01:19:17;;;;;;;9.00;7.17;;;;;;;4.92;58.56;102039.13;6263596;28;20227;-78
2020/12/26 01:22:37;;;;;;;10.57;7.20;;;;;;;4.69;59.62;102050.34;6268695;28;20240;-77
2020/12/26 01:25:59;;;;;;;9.87;7.97;;;;;;;4.94;58.76;102039.16;6280509;28;20259;-77
2020/12/26 01:29:19;;;;;;;8.30;7.50;;;;;;;4.97;57.55;102033.25;6289112;28;20220;-77
2020/12/26 01:32:41;;;;;;;10.10;7.37;;;;;;;5.12;57.11;102041.50;6274478;28;20235;-77
2020/12/26 01:36:01;;;;;;;9.97;8.40;;;;;;;5.16;57.67;102040.75;6275194;28;20231;-77
2020/12/26 01:39:24;;;;;;;15.10;9.60;;;;;;;5.06;57.69;102039.59;6288224;28;20223;-77
2020/12/26 01:42:47;;;;;;;11.77;10.57;;;;;;;4.58;59.77;102041.38;6283472;28;20231;-77
2020/12/26 01:46:08;;;;;;;11.83;9.63;;;;;;;4.46;60.29;102045.28;6269248;28;20227;-77
2020/12/26 01:49:30;;;;;;;15.07;10.07;;;;;;;4.24;61.40;102040.16;6273395;28;20231;-77
2020/12/26 01:52:53;;;;;;;10.53;9.40;;;;;;;4.39;60.25;102034.69;6268760;28;21315;-77
2020/12/26 01:56:13;;;;;;;11.57;10.37;;;;;;;4.03;61.72;102033.41;6273449;28;20239;-77
2020/12/26 01:59:34;;;;;;;11.97;9.97;;;;;;;3.61;63.91;102032.66;6280418;28;20255;-77
2020/12/26 02:02:54;;;;;;;16.67;11.63;;;;;;;3.30;64.24;102023.72;6292253;28;20506;-77
2020/12/26 02:06:15;;;;;;;14.77;11.17;;;;;;;3.31;64.60;102030.59;6277927;28;20232;-77
2020/12/26 02:09:36;;;;;;;13.47;11.33;;;;;;;3.37;64.74;102024.81;6277701;28;20248;-77
2020/12/26 02:12:56;;;;;;;16.40;13.47;;;;;;;3.35;64.63;102012.78;6270586;28;20270;-78
2020/12/26 02:16:17;;;;;;;18.70;15.03;;;;;;;2.82;66.51;102013.16;6276701;28;20239;-77
2020/12/26 02:19:37;;;;;;;18.33;14.97;;;;;;;3.08;65.89;102007.41;6281925;28;20227;-76
2020/12/26 02:23:02;;;;;;;26.63;16.27;;;;;;;2.98;65.70;102017.25;6287509;28;20223;-79
2020/12/26 02:26:29;;;;;;;23.50;15.23;;;;;;;3.29;64.50;102025.38;6279081;28;20322;-76
2020/12/26 02:29:50;;;;;;;23.37;18.00;;;;;;;2.74;66.62;102028.28;6268036;28;20239;-77
2020/12/26 02:33:10;;;;;;;25.50;18.47;;;;;;;2.75;66.38;102037.72;6283584;28;20235;-76
2020/12/26 02:36:31;;;;;;;22.10;17.30;;;;;;;2.61;66.82;102034.56;6268038;28;20515;-78
2020/12/26 02:39:52;;;;;;;21.57;16.43;;;;;;;2.44;66.98;102026.13;6274776;28;20231;-76
2020/12/26 02:43:19;;;;;;;27.93;18.03;;;;;;;2.73;66.12;102005.91;6282351;28;20224;-77
2020/12/26 02:46:39;;;;;;;20.23;15.33;;;;;;;2.67;65.34;101997.97;6259849;28;20232;-77
2020/12/26 02:50:00;;;;;;;21.63;15.70;;;;;;;2.53;65.69;101984.50;6254886;28;20225;-76
2020/12/26 02:53:20;;;;;;;18.83;15.13;;;;;;;2.64;65.20;101990.13;6252379;28;20231;-77
2020/12/26 02:56:41;;;;;;;15.93;13.87;;;;;;;2.75;65.06;101999.16;6242880;28;20233;-78
2020/12/26 03:00:03;;;;;;;18.97;13.97;;;;;;;2.87;64.70;102003.91;6265076;28;20666;-77
2020/12/26 03:03:27;;;;;;;15.30;13.33;;;;;;;3.07;63.84;102002.19;6256610;28;20235;-76
2020/12/26 03:06:54;;;;;;;17.43;13.97;;;;;;;3.31;62.47;101995.41;6296877;28;20767;-77
2020/12/26 03:10:17;;;;;;;15.73;14.13;;;;;;;3.00;64.01;101990.75;6252823;28;20236;-77
2020/12/26 03:13:38;;;;;;;20.57;13.67;;;;;;;3.00;63.52;101988.16;6251224;28;20232;-77
2020/12/26 03:16:59;;;;;;;14.63;12.63;;;;;;;3.14;62.74;101989.63;6267370;28;20230;-77
2020/12/26 03:20:20;;;;;;;12.73;11.37;;;;;;;3.15;62.28;101975.06;6247823;28;20224;-77
2020/12/26 03:23:40;;;;;;;13.43;12.03;;;;;;;3.22;62.76;101969.34;6249574;28;20227;-77
2020/12/26 03:27:01;;;;;;;14.27;12.77;;;;;;;3.12;62.61;101957.81;6257622;28;20626;-78
2020/12/26 03:30:21;;;;;;;12.63;11.23;;;;;;;3.55;61.94;101956.00;6265448;28;20233;-78
2020/12/26 03:33:43;;;;;;;12.67;11.40;;;;;;;3.68;61.29;101958.22;6247649;28;20747;-78
2020/12/26 03:37:03;;;;;;;14.33;11.13;;;;;;;3.69;60.88;101947.09;6248015;28;20232;-78
2020/12/26 03:40:23;;;;;;;13.40;10.77;;;;;;;3.64;61.17;101960.63;6247046;28;20309;-78
2020/12/26 03:43:44;;;;;;;12.97;10.40;;;;;;;3.49;61.69;101966.06;6250564;28;20244;-77
2020/12/26 03:47:06;;;;;;;11.50;10.30;;;;;;;3.24;62.19;101957.41;6248239;28;20342;-78
2020/12/26 03:50:28;;;;;;;12.93;10.53;;;;;;;3.47;62.12;101954.81;6269726;28;20243;-77
2020/12/26 03:53:48;;;;;;;12.93;10.83;;;;;;;3.62;61.03;101947.66;6271116;28;20235;-78
2020/12/26 03:57:08;;;;;;;14.40;10.73;;;;;;;3.86;61.10;101936.53;6259454;28;20668;-77
2020/12/26 04:00:32;;;;;;;12.53;10.70;;;;;;;4.04;60.25;101939.75;6255585;28;20552;-77
2020/12/26 04:03:52;;;;;;;14.03;10.73;;;;;;;4.01;60.28;101936.19;6261868;28;20240;-77
2020/12/26 04:07:13;;;;;;;13.47;11.03;;;;;;;3.83;60.83;101931.25;6254568;28;20227;-78
2020/12/26 04:10:34;;;;;;;13.80;10.77;;;;;;;3.89;60.31;101926.31;6259419;28;20244;-77
2020/12/26 04:13:54;;;;;;;15.17;11.47;;;;;;;4.02;60.43;101920.78;6267335;28;20232;-77
2020/12/26 04:17:15;;;;;;;12.90;10.90;;;;;;;4.10;60.40;101911.63;6264715;28;20231;-78
2020/12/26 04:20:36;;;;;;;12.57;11.27;;;;;;;4.07;60.37;101914.09;6246475;28;20273;-76
2020/12/26 04:24:00;;;;;;;16.87;12.60;;;;;;;4.19;59.59;101910.16;6265659;28;20245;-78
2020/12/26 04:27:20;;;;;;;17.10;12.63;;;;;;;4.24;59.31;101903.47;6260471;28;20221;-77
2020/12/26 04:30:40;;;;;;;13.37;11.97;;;;;;;4.03;60.34;101907.09;6273609;28;20224;-77
2020/12/26 04:34:01;;;;;;;16.83;13.27;;;;;;;3.95;60.58;101905.91;6244844;28;20581;-78
2020/12/26 04:37:21;;;;;;;15.67;11.83;;;;;;;3.92;61.09;101905.81;6254730;28;20224;-77
2020/12/26 04:40:44;;;;;;;13.17;11.73;;;;;;;3.79;61.02;101901.91;6258705;28;20224;-78
2020/12/26 04:44:06;;;;;;;13.93;12.20;;;;;;;4.02;60.89;101895.00;6245976;28;20232;-78
2020/12/26 04:47:30;;;;;;;18.10;13.40;;;;;;;3.84;61.21;101889.19;6246450;28;20272;-78
2020/12/26 04:50:56;;;;;;;15.17;12.90;;;;;;;3.98;61.47;101881.97;6246326;28;20248;-78
2020/12/26 04:54:23;;;;;;;13.77;11.33;;;;;;;4.23;59.85;101889.72;6249351;28;20536;-77
2020/12/26 04:57:48;;;;;;;16.17;12.67;;;;;;;4.36;59.17;101887.53;6245566;28;20339;-77
2020/12/26 05:01:09;;;;;;;13.40;11.93;;;;;;;4.19;60.08;101881.81;6263502;28;20625;-76
2020/12/26 05:04:29;;;;;;;12.77;10.97;;;;;;;4.23;60.39;101892.31;6269037;28;20623;-77
2020/12/26 05:07:49;;;;;;;14.30;11.60;;;;;;;4.23;60.23;101894.00;6262408;28;20232;-77
2020/12/26 05:11:10;;;;;;;17.00;12.40;;;;;;;4.08;60.36;101902.06;6249421;28;20229;-77
2020/12/26 05:14:32;;;;;;;14.30;12.23;;;;;;;4.12;60.20;101894.50;6249435;28;20236;-78
2020/12/26 05:17:52;;;;;;;13.60;12.17;;;;;;;4.48;59.26;101893.13;6249727;28;20564;-78
2020/12/26 05:21:12;;;;;;;12.47;10.17;;;;;;;4.52;59.05;101882.09;6248182;28;20232;-78
2020/12/26 05:24:32;;;;;;;15.30;13.07;;;;;;;4.49;59.57;101880.25;6245588;28;20622;-78
2020/12/26 05:27:59;;;;;;;16.30;14.67;;;;;;;4.24;59.74;101883.72;6243501;28;20228;-78
2020/12/26 05:31:21;;;;;;;13.77;11.60;;;;;;;4.04;61.24;101885.63;6256757;28;20332;-78
2020/12/26 05:34:41;;;;;;;15.47;13.33;;;;;;;3.89;61.84;101885.09;6267732;28;20629;-77
2020/12/26 05:38:11;;;;;;;13.47;12.07;;;;;;;3.95;61.23;101880.13;6265245;28;20297;-77
2020/12/26 05:41:32;;;;;;;14.37;10.90;;;;;;;4.16;60.78;101881.72;6237934;28;20283;-77
2020/12/26 05:45:05;;;;;;;14.93;12.77;;;;;;;4.40;59.88;101879.97;6243985;28;20228;-77
2020/12/26 05:48:28;;;;;;;13.17;10.80;;;;;;;4.65;59.58;101883.34;6248019;28;20236;-78
2020/12/26 05:51:51;;;;;;;16.20;12.23;;;;;;;4.30;60.96;101883.94;6242754;28;20224;-79
2020/12/26 05:55:17;;;;;;;13.87;11.90;;;;;;;4.29;60.52;101884.75;6248498;28;20311;-77
2020/12/26 05:58:43;;;;;;;14.63;13.10;;;;;;;4.12;61.85;101879.03;6256289;28;20228;-76
2020/12/26 06:02:17;;;;;;;14.65;13.15;;;;;;;4.21;61.29;101872.44;6259603;28;20720;-77
2020/12/26 06:05:39;;;;;;;18.90;13.90;;;;;;;4.23;61.06;101868.22;6265079;28;20233;-78
2020/12/26 06:09:00;;;;;;;19.27;11.53;;;;;;;4.27;62.11;101862.34;6253755;28;20239;-77
2020/12/26 06:12:22;;;;;;;15.43;11.30;;;;;;;4.49;61.36;101859.63;6242967;28;20228;-78
2020/12/26 06:15:48;;;;;;;12.60;11.30;;;;;;;4.32;62.14;101851.34;6246444;28;20594;-77
2020/12/26 06:19:14;;;;;;;10.60;9.50;;;;;;;4.56;60.85;101854.69;6233906;28;20244;-77
2020/12/26 06:22:44;;;;;;;17.73;11.40;;;;;;;4.57;61.52;101869.31;6239926;28;20276;-78
2020/12/26 06:26:05;;;;;;;11.77;9.30;;;;;;;4.47;62.29;101866.44;6232435;28;20754;-76
2020/12/26 06:29:31;;;;;;;10.67;9.57;;;;;;;4.20;63.84;101866.41;6235943;28;20232;-77
2020/12/26 06:32:52;;;;;;;13.70;10.43;;;;;;;4.22;64.43;101866.44;6247054;28;20323;-77
2020/12/26 06:36:14;;;;;;;12.90;9.67;;;;;;;4.49;63.21;101853.59;6242157;28;20224;-77
2020/12/26 06:39:36;;;;;;;11.83;8.80;;;;;;;4.21;64.47;101854.41;6259943;28;20350;-77
2020/12/26 06:42:59;;;;;;;11.67;8.53;;;;;;;4.32;64.20;101858.19;6240721;28;20221;-77
2020/12/26 06:46:39;;;;;;;10.63;9.57;;;;;;;3.96;66.12;101856.13;6255682;28;20330;-77
2020/12/26 06:50:21;;;;;;;9.77;8.50;;;;;;;4.18;65.40;101862.88;6248757;28;20232;-77
2020/12/26 06:53:43;;;;;;;10.87;7.63;;;;;;;4.34;64.39;101864.28;6237711;28;20499;-77
2020/12/26 06:57:04;;;;;;;11.00;7.40;;;;;;;4.11;65.40;101861.81;6243761;28;20225;-78
2020/12/26 07:00:29;;;;;;;10.57;7.38;;;;;;;3.98;66.05;101858.78;6249585;28;20683;-76
2020/12/26 07:04:13;;;;;;;9.73;7.57;;;;;;;3.77;67.38;101869.19;6265979;28;20601;-77
2020/12/26 07:07:37;;;;;;;13.70;8.03;;;;;;;4.03;65.74;101863.25;6248193;28;20240;-77
2020/12/26 07:11:00;;;;;;;10.80;7.57;;;;;;;4.05;66.33;101856.47;6274542;28;20227;-77
2020/12/26 07:14:32;;;;;;;7.97;6.97;;;;;;;3.89;66.66;101859.31;6257342;28;20224;-78
2020/12/26 07:17:53;;;;;;;10.00;7.53;;;;;;;3.94;66.78;101860.38;6251259;28;20266;-78
2020/12/26 07:21:14;;;;;;;9.93;7.20;;;;;;;3.92;66.54;101854.28;6278866;28;20237;-77
2020/12/26 07:24:39;;;;;;;9.80;7.80;;;;;;;3.99;66.90;101852.78;6264838;28;20228;-77
2020/12/26 07:28:03;;;;;;;13.20;6.77;;;;;;;3.85;67.43;101847.16;6254688;28;20234;-78
2020/12/26 07:31:24;;;;;;;7.60;6.40;;;;;;;4.13;66.49;101844.69;6248850;28;20232;-78
2020/12/26 07:34:44;;;;;;;10.07;7.73;;;;;;;4.14;66.68;101850.72;6250244;28;20228;-78
2020/12/26 07:38:11;;;;;;;11.87;7.37;;;;;;;4.22;66.01;101851.84;6247758;28;20225;-78
2020/12/26 07:41:31;;;;;;;6.87;5.93;;;;;;;4.18;66.35;101851.72;6241577;28;20229;-78
2020/12/26 07:44:52;;;;;;;9.97;6.63;;;;;;;3.88;67.85;101852.44;6236780;28;20315;-76
2020/12/26 07:48:14;;;;;;;13.73;7.80;;;;;;;3.77;68.51;101843.44;6253188;28;20521;-76
2020/12/26 07:51:34;;;;;;;9.27;6.43;;;;;;;4.01;67.06;101844.25;6264304;28;20739;-77
2020/12/26 07:55:03;;;;;;;7.17;6.53;;;;;;;4.02;67.67;101840.88;6269159;28;20772;-77
2020/12/26 07:58:23;;;;;;;12.17;7.23;;;;;;;3.92;67.91;101849.13;6250581;28;20228;-76
2020/12/26 08:01:44;;;;;;;10.60;5.70;;;;;;;3.92;68.05;101854.28;6249091;28;20558;-79
2020/12/26 08:05:07;;;;;;;7.83;5.97;;;;;;;4.05;67.63;101859.03;6251272;28;20252;-78
2020/12/26 08:08:28;;;;;;;10.07;5.33;;;;;;;4.04;67.24;101854.69;6246093;28;20318;-77
2020/12/26 08:11:49;;;;;;;6.73;6.10;;;;;;;3.84;67.99;101856.59;6273623;28;20228;-79
2020/12/26 08:15:11;;;;;;;5.63;5.00;;;;;;;3.96;67.93;101863.00;6243984;28;20223;-77
2020/12/26 08:18:48;;;;;;;6.20;4.37;;;;;;;4.21;66.72;101857.84;6249572;28;20247;-77
2020/12/26 08:22:09;;;;;;;6.43;4.73;;;;;;;4.11;67.74;101856.66;6261968;28;20223;-78
2020/12/26 08:25:31;;;;;;;5.80;4.60;;;;;;;4.32;67.00;101855.59;6259481;28;20338;-79
2020/12/26 08:28:55;;;;;;;7.57;4.33;;;;;;;4.09;67.78;101857.41;6252045;28;20224;-78
2020/12/26 08:32:16;;;;;;;8.23;6.20;;;;;;;4.09;67.42;101853.16;6253953;28;20643;-77
2020/12/26 08:35:40;;;;;;;11.83;5.33;;;;;;;3.98;68.14;101849.34;6255033;28;20492;-78
2020/12/26 08:39:03;;;;;;;7.43;4.57;;;;;;;4.23;67.42;101855.34;6248438;28;20232;-77
2020/12/26 08:42:26;;;;;;;5.10;4.60;;;;;;;4.10;67.75;101854.91;6257723;28;20315;-77
2020/12/26 08:45:46;;;;;;;5.63;4.13;;;;;;;4.04;67.69;101854.69;6248718;28;20312;-77
2020/12/26 08:49:07;;;;;;;10.33;6.27;;;;;;;4.03;68.42;101849.47;6266980;28;20232;-78
2020/12/26 08:52:28;;;;;;;6.60;4.07;;;;;;;4.09;68.20;101845.44;6273329;28;21697;-77
2020/12/26 08:55:50;;;;;;;7.70;3.70;;;;;;;3.86;69.21;101830.88;6264414;28;20228;-77
2020/12/26 08:59:11;;;;;;;5.87;4.50;;;;;;;3.89;68.98;101841.28;6256202;28;20244;-78
2020/12/26 09:02:31;;;;;;;7.60;4.40;;;;;;;4.35;67.28;101829.94;6248268;28;20654;-77
2020/12/26 09:05:52;;;;;;;8.70;4.10;;;;;;;4.48;66.91;101834.66;6253174;28;20330;-78
2020/12/26 09:09:14;;;;;;;6.80;3.70;;;;;;;4.67;66.08;101832.66;6263781;28;20225;-78
2020/12/26 09:12:35;;;;;;;5.27;3.87;;;;;;;4.09;68.15;101835.13;6255098;28;20235;-79
2020/12/26 09:15:57;;;;;;;9.37;4.43;;;;;;;4.21;67.40;101838.94;6257691;28;20228;-78
2020/12/26 09:19:17;;;;;;;6.73;3.90;;;;;;;4.46;67.10;101830.25;6255219;28;20524;-77
2020/12/26 09:22:38;;;;;;;7.67;4.10;;;;;;;4.10;68.89;101828.25;6248404;28;20348;-74
2020/12/26 09:26:09;;;;;;;8.90;3.70;;;;;;;4.03;68.57;101831.44;6245275;28;20778;-77
2020/12/26 09:29:30;;;;;;;5.60;4.10;;;;;;;4.22;68.25;101820.03;6246734;28;20303;-76
2020/12/26 09:32:54;;;;;;;6.17;3.97;;;;;;;4.14;68.79;101818.06;6248767;28;20252;-78
2020/12/26 09:36:17;;;;;;;7.67;4.20;;;;;;;4.01;69.17;101805.59;6243466;28;20240;-77
2020/12/26 09:39:38;;;;;;;7.00;4.30;;;;;;;4.16;68.65;101799.22;6251694;28;20755;-76
2020/12/26 09:42:59;;;;;;;8.40;5.87;;;;;;;4.20;68.02;101795.91;6265034;28;20232;-78
2020/12/26 09:46:22;;;;;;;7.20;4.27;;;;;;;4.03;68.76;101787.59;6266125;28;20235;-78
2020/12/26 09:49:42;;;;;;;8.00;4.60;;;;;;;4.24;68.99;101790.88;6243596;28;20300;-77
2020/12/26 09:53:03;;;;;;;10.10;4.83;;;;;;;3.94;69.83;101780.47;6248267;28;20240;-78
2020/12/26 09:56:23;;;;;;;6.33;4.03;;;;;;;3.90;69.85;101770.88;6249595;28;20707;-78
2020/12/26 09:59:44;;;;;;;4.63;4.00;;;;;;;3.97;69.42;101770.25;6243017;28;20236;-77
2020/12/26 10:03:06;;;;;;;7.77;3.33;;;;;;;4.30;68.47;101782.47;6247647;28;20228;-77
2020/12/26 10:06:26;;;;;;;9.17;4.53;;;;;;;4.00;69.67;101772.94;6243814;28;20653;-77
2020/12/26 10:09:47;;;;;;;8.43;4.10;;;;;;;4.04;69.85;101772.19;6246050;28;20228;-78
2020/12/26 10:13:07;;;;;;;6.20;4.03;;;;;;;4.01;70.19;101764.34;6256336;28;20227;-78
2020/12/26 10:16:28;;;;;;;6.53;3.97;;;;;;;3.81;70.33;101758.53;6242758;28;20241;-78
2020/12/26 10:19:49;;;;;;;5.37;4.00;;;;;;;4.00;70.25;101752.31;6255095;28;20236;-77
2020/12/26 10:23:10;;;;;;;5.67;3.93;;;;;;;4.23;68.80;101747.03;6243258;28;20232;-77
2020/12/26 10:26:30;;;;;;;8.33;4.20;;;;;;;3.79;70.47;101741.28;6270787;28;20239;-78
2020/12/26 10:29:50;;;;;;;8.80;4.50;;;;;;;4.08;69.76;101732.81;6267229;28;20669;-79
2020/12/26 10:33:11;;;;;;;5.57;4.27;;;;;;;4.04;70.05;101730.97;6267730;28;20499;-79
2020/12/26 10:36:32;;;;;;;6.20;4.80;;;;;;;4.06;69.40;101733.59;6280273;28;20239;-77
2020/12/26 10:39:53;;;;;;;4.80;4.20;;;;;;;4.06;69.62;101734.47;6284578;28;20227;-76
2020/12/26 10:43:14;;;;;;;9.07;5.03;;;;;;;4.08;69.45;101731.94;6287095;28;20235;-78
2020/12/26 10:46:35;;;;;;;10.33;4.67;;;;;;;4.02;69.67;101729.16;6281078;28;20243;-77
2020/12/26 10:49:57;;;;;;;8.00;5.03;;;;;;;4.30;68.71;101718.00;6280615;28;20227;-79
2020/12/26 10:53:18;;;;;;;7.83;4.90;;;;;;;4.27;69.86;101695.59;6268316;28;20232;-78
2020/12/26 10:56:39;;;;;;;6.60;4.67;;;;;;;4.23;70.00;101696.31;6278925;28;20310;-78
2020/12/26 10:59:59;;;;;;;5.27;4.57;;;;;;;4.09;70.00;101690.75;6272833;28;20227;-79
2020/12/26 11:03:20;;;;;;;6.53;4.33;;;;;;;3.90;70.99;101696.16;6274308;28;20239;-78
2020/12/26 11:06:40;;;;;;;6.33;4.93;;;;;;;4.03;70.25;101680.25;6273838;28;20330;-77
2020/12/26 11:10:01;;;;;;;6.27;5.23;;;;;;;4.10;70.26;101689.03;6276991;28;20232;-78
2020/12/26 11:13:22;;;;;;;6.80;5.23;;;;;;;4.43;69.03;101678.88;6270204;28;20597;-79
2020/12/26 11:16:47;;;;;;;9.30;4.90;;;;;;;4.19;70.20;101673.84;6267255;28;20231;-78
2020/12/26 11:20:09;;;;;;;8.00;5.83;;;;;;;4.56;68.99;101663.78;6267303;28;20621;-77
2020/12/26 11:23:29;;;;;;;8.10;5.57;;;;;;;4.28;70.12;101658.63;6281061;28;20327;-77
2020/12/26 11:26:50;;;;;;;7.70;5.63;;;;;;;4.21;70.84;101646.41;6290518;28;20251;-77
2020/12/26 11:30:11;;;;;;;12.00;6.77;;;;;;;4.15;71.18;101659.13;6283332;28;20677;-78
2020/12/26 11:33:32;;;;;;;9.77;6.20;;;;;;;4.14;70.88;101654.78;6275760;28;20341;-77
2020/12/26 11:36:53;;;;;;;7.33;6.30;;;;;;;4.20;70.98;101641.22;6272423;28;20235;-78
2020/12/26 11:40:13;;;;;;;9.10;8.07;;;;;;;4.12;71.73;101641.84;6284653;28;20485;-79
2020/12/26 11:43:34;;;;;;;10.70;7.57;;;;;;;4.32;71.13;101626.09;6296738;28;20506;-78
2020/12/26 11:46:58;;;;;;;8.77;7.97;;;;;;;4.37;70.79;101624.53;6296401;28;20239;-76
2020/12/26 11:50:21;;;;;;;10.47;7.13;;;;;;;4.24;71.06;101625.88;6278202;28;20307;-77
2020/12/26 11:53:41;;;;;;;10.73;7.97;;;;;;;4.22;71.21;101600.88;6276790;28;20235;-78
2020/12/26 11:57:02;;;;;;;8.60;7.80;;;;;;;4.38;70.92;101618.56;6277121;28;20227;-78
2020/12/26 12:00:25;;;;;;;10.87;7.73;;;;;;;4.32;71.29;101606.34;6270665;28;20228;-80
2020/12/26 12:03:45;;;;;;;13.43;8.00;;;;;;;4.30;71.03;101589.97;6280364;28;20597;-78
2020/12/26 12:07:06;;;;;;;9.50;8.60;;;;;;;4.53;70.74;101587.16;6279681;28;20235;-77
2020/12/26 12:10:26;;;;;;;15.33;8.67;;;;;;;4.46;70.08;101568.06;6277081;28;20259;-78
2020/12/26 12:13:48;;;;;;;10.53;7.27;;;;;;;4.47;70.43;101556.91;6270371;28;20232;-79
2020/12/26 12:17:09;;;;;;;9.27;8.27;;;;;;;4.68;69.87;101553.16;6271622;28;20227;-76
2020/12/26 12:20:31;;;;;;;10.27;9.13;;;;;;;4.72;69.34;101552.41;6288512;28;20235;-77
2020/12/26 12:23:51;;;;;;;13.87;8.43;;;;;;;4.97;68.90;101547.91;6293163;28;20597;-77
2020/12/26 12:27:12;;;;;;;7.90;7.30;;;;;;;5.23;68.27;101541.66;6283383;28;20238;-78
2020/12/26 12:30:32;;;;;;;8.93;8.10;;;;;;;5.02;67.93;101538.53;6293756;28;20511;-78
2020/12/26 12:33:54;;;;;;;9.70;7.93;;;;;;;4.97;68.40;101542.75;6275883;28;20613;-77
2020/12/26 12:37:14;;;;;;;8.90;7.23;;;;;;;4.93;69.23;101534.91;6270989;28;20244;-77
2020/12/26 12:40:35;;;;;;;8.77;7.93;;;;;;;4.82;69.30;101527.72;6285909;28;20235;-77
2020/12/26 12:43:56;;;;;;;9.17;8.27;;;;;;;4.67;70.08;101512.69;6291813;28;20276;-77
2020/12/26 12:47:16;;;;;;;9.83;8.93;;;;;;;4.52;70.74;101497.72;6287522;28;20610;-77
2020/12/26 12:50:37;;;;;;;9.57;8.67;;;;;;;4.92;69.72;101493.56;6270299;28;20231;-76
2020/12/26 12:53:57;;;;;;;9.60;8.60;;;;;;;4.90;69.30;101490.97;6282245;28;20235;-76
2020/12/26 12:57:18;;;;;;;9.57;7.63;;;;;;;5.06;68.74;101489.63;6287478;28;20228;-76
2020/12/26 13:00:38;;;;;;;9.47;8.30;;;;;;;4.85;69.40;101487.38;6274452;28;20223;-76
2020/12/26 13:04:01;;;;;;;8.93;8.03;;;;;;;4.67;69.70;101484.31;6287674;28;21622;-80
2020/12/26 13:07:22;;;;;;;7.87;7.17;;;;;;;4.91;69.61;101476.34;6270950;28;20232;-79
2020/12/26 13:10:46;;;;;;;10.97;9.17;;;;;;;4.66;69.95;101480.88;6283685;28;20592;-80
2020/12/26 13:14:06;;;;;;;9.53;7.63;;;;;;;4.73;70.22;101469.03;6281375;28;20224;-79
2020/12/26 13:17:28;;;;;;;9.27;8.10;;;;;;;4.85;69.35;101464.16;6265714;28;20224;-79
2020/12/26 13:20:50;;;;;;;10.13;7.27;;;;;;;4.89;69.82;101467.69;6255125;28;20220;-78
2020/12/26 13:24:11;;;;;;;8.00;7.30;;;;;;;4.83;69.26;101473.56;6246157;28;20236;-80
2020/12/26 13:27:32;;;;;;;7.67;6.97;;;;;;;5.06;68.43;101462.91;6267797;28;20268;-78
2020/12/26 13:30:52;;;;;;;7.70;7.03;;;;;;;4.88;69.06;101461.63;6252026;28;20227;-79
2020/12/26 13:34:15;;;;;;;8.87;7.53;;;;;;;5.09;68.72;101450.09;6270181;28;20798;-77
2020/12/26 13:37:36;;;;;;;7.60;6.90;;;;;;;5.36;67.42;101441.22;6270043;28;20284;-80
2020/12/26 13:40:57;;;;;;;7.20;6.60;;;;;;;5.29;67.49;101446.25;6259254;28;20220;-79
2020/12/26 13:44:17;;;;;;;13.63;8.83;;;;;;;5.20;68.22;101447.78;6272722;28;20304;-78
2020/12/26 13:47:38;;;;;;;8.70;7.80;;;;;;;5.35;67.28;101436.88;6260211;28;20240;-78
2020/12/26 13:50:59;;;;;;;9.57;8.67;;;;;;;5.13;68.80;101431.25;6257211;28;20255;-78
2020/12/26 13:54:19;;;;;;;9.73;7.80;;;;;;;5.35;67.86;101430.03;6257597;28;20766;-78
2020/12/26 13:57:41;;;;;;;9.60;8.67;;;;;;;4.90;69.67;101433.28;6251904;28;20546;-78
2020/12/26 14:01:03;;;;;;;11.40;8.60;;;;;;;5.15;68.46;101416.66;6255030;28;20235;-78
2020/12/26 14:04:23;;;;;;;20.03;11.80;;;;;;;5.04;68.76;101424.19;6243699;28;20225;-79
2020/12/26 14:07:44;;;;;;;11.30;10.10;;;;;;;4.95;69.14;101415.34;6249215;28;20260;-78
2020/12/26 14:11:05;;;;;;;10.80;9.80;;;;;;;4.84;69.41;101417.66;6252734;28;20224;-78
2020/12/26 14:14:26;;;;;;;10.47;9.43;;;;;;;4.98;69.34;101407.66;6266845;28;20670;-78
2020/12/26 14:17:50;;;;;;;11.37;10.30;;;;;;;5.10;68.49;101395.03;6269732;28;20227;-78
2020/12/26 14:21:10;;;;;;;13.50;9.93;;;;;;;5.16;68.41;101400.34;6247669;28;20680;-77
2020/12/26 14:24:31;;;;;;;11.20;10.23;;;;;;;4.98;68.59;101400.78;6242574;28;20236;-78
2020/12/26 14:27:51;;;;;;;11.23;10.17;;;;;;;5.41;67.02;101395.69;6269247;28;20235;-76
2020/12/26 14:31:12;;;;;;;10.70;9.60;;;;;;;5.29;67.65;101399.78;6287123;28;20223;-77
2020/12/26 14:34:33;;;;;;;12.60;11.27;;;;;;;5.30;67.28;101396.34;6293058;28;20227;-78
2020/12/26 14:37:53;;;;;;;12.97;11.73;;;;;;;5.02;67.92;101396.56;6268513;28;20231;-78
2020/12/26 14:41:14;;;;;;;13.63;11.40;;;;;;;5.20;68.10;101385.78;6269539;28;20424;-78
2020/12/26 14:44:36;;;;;;;13.93;12.20;;;;;;;4.82;68.37;101417.59;6271934;28;20648;-78
2020/12/26 14:47:59;;;;;;;13.50;12.17;;;;;;;5.10;67.85;101382.13;6267550;28;20228;-78
2020/12/26 14:51:19;;;;;;;13.33;12.03;;;;;;;4.95;68.32;101392.97;6277014;28;20227;-78
2020/12/26 14:54:39;;;;;;;13.33;12.13;;;;;;;5.17;67.69;101378.84;6290306;28;20761;-78
2020/12/26 14:57:59;;;;;;;16.23;12.93;;;;;;;4.97;68.55;101359.47;6267648;28;20236;-78
2020/12/26 15:01:20;;;;;;;15.32;13.38;;;;;;;5.25;67.27;101351.50;6276165;28;21144;-78
2020/12/26 15:04:41;;;;;;;15.90;14.33;;;;;;;5.34;66.44;101345.63;6280535;28;20232;-78
2020/12/26 15:08:02;;;;;;;13.07;11.87;;;;;;;5.22;66.85;101337.63;6281502;28;20239;-78
2020/12/26 15:11:22;;;;;;;12.30;11.07;;;;;;;5.38;66.53;101333.66;6266766;28;20216;-77
2020/12/26 15:14:42;;;;;;;13.93;12.53;;;;;;;5.11;67.17;101333.09;6276362;28;20223;-78
2020/12/26 15:18:03;;;;;;;14.23;12.97;;;;;;;5.13;67.43;101336.56;6285344;28;20228;-77
2020/12/26 15:21:24;;;;;;;14.73;12.33;;;;;;;5.21;66.55;101334.16;6286698;28;20759;-78
2020/12/26 15:24:45;;;;;;;14.20;12.60;;;;;;;5.33;66.54;101318.94;6284252;28;20931;-79
2020/12/26 15:28:06;;;;;;;14.33;12.93;;;;;;;5.16;66.74;101329.72;6287230;28;20263;-78
2020/12/26 15:31:26;;;;;;;14.87;13.33;;;;;;;5.15;66.90;101328.00;6268254;28;20227;-78
2020/12/26 15:34:47;;;;;;;14.93;13.43;;;;;;;5.43;66.25;101312.25;6268177;28;20220;-77
2020/12/26 15:38:08;;;;;;;15.30;13.80;;;;;;;5.30;66.06;101308.53;6291773;28;20244;-78
2020/12/26 15:41:29;;;;;;;15.13;13.73;;;;;;;5.41;65.91;101300.13;6271230;28;20243;-79